My Meet Scores
Kelsey Boros, Gym Kinetics Gymnastics - MyMeetScores.com
Top100 | Top Teams | Upcoming Meets | Completed Meets | Latest | Add Scores | Help| Support | Bookmark and Share

Kelsey Boros, Gym Kinetics Gymnastics
Personal Bests
LevelVault BarsBeamFloorAA
39.1759.775 9.4009.17537.350
47.8009.050 9.5759.27535.350
59.1259.550 9.4759.30036.325
Meet Scores
Date Meet Team Session Level Division Vault Bars Beam Floor AA
2020-02-21 Kinetic Classic Gym Kinetics Gymnastics 03 5 Younger 8.750 50 8.825 31 8.925 50T 9.175 21T 35.675 40
2020-01-31 Chow's Challenge Gym Kinetics Gymnastics B2 5 JR A 8.800 7 9.050 2 9.475 1 9.000 6 36.325 3
2020-01-10 Leenda's Island Adventure Gym Kinetics Gymnastics PG1 5 10 Year Ol 8.675 9T 8.850 10 9.125 4 9.300 5T 35.950 5
2019-12-20 Aspire Classic - 2019 Gym Kinetics Gymnastics 3A 5 Younger 8.850 16 9.000 10T 9.150 13T 8.775 17T 35.775 14
2019-12-07 Home for the Holidays 2019 Gym Kinetics Gymnastics 5 5 Younger 8.650 11 8.850 8 8.625 8T 9.150 9 35.275 10
2019-03-22 Illinois Gymnastics State Championships Gym Kinetics Gymnastics 1 5 JR A 0.000 28 9.550 3 7.300 27 0.000 28 16.850 28
2019-02-08 Midwest Twisters Harley Meet Womens Gym Kinetics Gymnastics O11 5 9 & under 0.000 12 9.275 2 0.000 12 0.000 12 9.275 12
2019-01-11 St Jude Benefit Meet Gym Kinetics Gymnastics 8A 5 Jr A 8.900 14 8.900 5 9.125 5 8.750 14 35.675 6
2018-12-14 2018 Aspire Classic Gym Kinetics Gymnastics 8A 5 Younger 9.125 15 9.250 6 8.800 17T 8.600 15 35.775 12
2018-03-08 Level 4 & 5 State Gym Kinetics Gymnastics All 4 Ch A 7.800 26 8.700 18* 9.150 14 8.775 17T 34.425 21T
2018-02-23 Kinetic Classic Gym Kinetics Gymnastics 7 4 Younger 7.675 84T 8.825 39T 9.575 4 9.275 24T 35.350 35T
2018-02-09 Arizona Sunrays Classic Rock Invitational Gym Kinetics Gymnastics W11 4 JrA 7.800 9 8.725 8 9.450 4 8.825 6T 34.800 6
2018-02-03 Midwest Games Gym Kinetics Gymnastics 6 4 Jr A 7.750 12T 8.825 8 9.450 2 9.025 9 35.050 9
2018-01-19 2018 Bravo Classic Gym Kinetics Gymnastics 10B 4 Child 7.700 13 9.050 3 9.450 2 8.725 11T 34.925 5
2017-12-15 2017 Aspire Classic Gym Kinetics Gymnastics 7A 4 Younger 7.800 20T 8.650 13 9.200 7 8.675 17 34.325 15
2017-03-30 2017 Illinois Level 3 & 5 State Gym Kinetics Gymnastics All 3 Ch B 9.175 22T 9.775 1 9.400 3 9.000 10 37.350 6
2017-02-24 Kinetic Classic Gym Kinetics Gymnastics 4,5,6,7 3 All Ages 8.900 84T 9.450 5T 9.175 27 8.975 52T 36.500 29T
2017-02-09 Hal's Harley-Davidson Invite Gym Kinetics Gymnastics S11 3 7 under 9.150 3T 9.675 1 8.000 8 9.075 5 35.900 5
2017-01-13 St Jude Benefit Meet Gym Kinetics Gymnastics 7A 3 Jr A 8.800 12 9.550 2 8.750 2 9.175 3 36.275 2
2016-12-16 2016 Aspire Classic Gym Kinetics Gymnastics 12 3 Younger 8.800 14T 9.450 1 8.150 12 9.150 1 35.550 5
Get your scores on
a t-shirt, pin, or hoodie

www.lazysuits.com